createdAt,value
2022-10-05T00:00:39.742Z,71.56
2022-10-05T00:03:06.036Z,71.46
2022-10-05T00:05:32.472Z,71.57
2022-10-05T00:07:58.721Z,71.67
2022-10-05T00:10:25.068Z,71.70
2022-10-05T00:12:51.403Z,71.88
2022-10-05T00:15:17.747Z,71.84
2022-10-05T00:17:44.061Z,71.94
2022-10-05T00:20:10.390Z,71.78
2022-10-05T00:22:36.734Z,71.78
2022-10-05T00:25:03.077Z,71.75
2022-10-05T00:27:29.395Z,71.76
2022-10-05T00:29:55.722Z,72.18
2022-10-05T00:32:22.044Z,71.99
2022-10-05T00:34:48.414Z,71.83
2022-10-05T00:37:14.724Z,71.29
2022-10-05T00:39:41.069Z,71.57
2022-10-05T00:42:07.406Z,71.79
2022-10-05T00:44:33.726Z,71.80
2022-10-05T00:47:00.087Z,71.95
2022-10-05T00:49:26.430Z,71.72
2022-10-05T00:51:52.744Z,71.71
2022-10-05T00:54:19.080Z,71.87
2022-10-05T00:56:45.658Z,71.37
2022-10-05T00:59:11.802Z,71.24
2022-10-05T01:01:38.152Z,71.47
2022-10-05T01:04:04.471Z,72.00
2022-10-05T01:06:30.787Z,72.39
2022-10-05T01:08:57.111Z,73.30
2022-10-05T01:11:23.431Z,73.94
2022-10-05T01:13:49.757Z,74.43
2022-10-05T01:16:16.193Z,74.78
2022-10-05T01:18:42.457Z,75.26
2022-10-05T01:21:08.775Z,75.27
2022-10-05T01:23:35.127Z,75.48
2022-10-05T01:26:01.436Z,75.78
2022-10-05T01:28:27.810Z,75.76
2022-10-05T01:30:54.084Z,75.81
2022-10-05T01:33:20.432Z,75.34
2022-10-05T01:35:46.767Z,75.50
2022-10-05T01:38:13.136Z,75.74
2022-10-05T01:40:39.475Z,75.83
2022-10-05T01:43:05.817Z,75.92
2022-10-05T01:45:32.178Z,75.87
2022-10-05T01:47:58.483Z,76.01
2022-10-05T01:50:24.816Z,75.91
2022-10-05T01:52:51.140Z,76.21
2022-10-05T01:55:17.457Z,76.50
2022-10-05T01:57:43.781Z,76.32
2022-10-05T02:00:10.100Z,76.49
2022-10-05T02:02:36.496Z,76.71
2022-10-05T02:05:03.231Z,76.61
2022-10-05T02:07:29.133Z,76.58
2022-10-05T02:09:55.450Z,76.43
2022-10-05T02:12:21.825Z,76.23
2022-10-05T02:14:48.163Z,76.47
2022-10-05T02:17:14.486Z,76.17
2022-10-05T02:19:40.807Z,75.85
2022-10-05T02:22:07.147Z,75.58
2022-10-05T02:24:33.464Z,75.32
2022-10-05T02:26:59.821Z,75.08
2022-10-05T02:29:26.160Z,75.04
2022-10-05T02:31:52.580Z,75.00
2022-10-05T02:34:18.832Z,75.16
2022-10-05T02:36:45.357Z,75.47
2022-10-05T02:39:11.473Z,75.70
2022-10-05T02:41:37.867Z,75.90
2022-10-05T02:44:04.205Z,75.98
2022-10-05T02:46:30.539Z,76.07
2022-10-05T02:48:56.886Z,76.05
2022-10-05T02:51:23.234Z,76.07
2022-10-05T02:53:49.565Z,76.20
2022-10-05T02:56:15.937Z,76.53
2022-10-05T02:58:42.284Z,76.52
2022-10-05T03:01:08.663Z,76.21
2022-10-05T03:03:34.989Z,75.59
2022-10-05T03:06:01.318Z,75.62
2022-10-05T03:08:27.632Z,75.43
2022-10-05T03:10:54.033Z,75.51
2022-10-05T03:13:20.352Z,75.98
2022-10-05T03:15:46.777Z,75.90
2022-10-05T03:18:13.031Z,75.84
2022-10-05T03:20:39.403Z,75.91
2022-10-05T03:23:05.734Z,76.16
2022-10-05T03:25:32.053Z,76.24
2022-10-05T03:27:58.436Z,75.98
2022-10-05T03:30:24.698Z,75.67
2022-10-05T03:32:51.027Z,75.70
2022-10-05T03:35:17.366Z,75.96
2022-10-05T03:37:43.701Z,76.07
2022-10-05T03:40:10.026Z,76.28
2022-10-05T03:42:36.367Z,76.33
2022-10-05T03:45:02.713Z,76.25
2022-10-05T03:47:29.048Z,76.68
2022-10-05T03:49:55.396Z,76.90
2022-10-05T03:52:21.735Z,77.07
2022-10-05T03:54:48.059Z,77.21
2022-10-05T03:57:14.381Z,77.24
2022-10-05T03:59:40.722Z,77.42
2022-10-05T04:02:07.059Z,77.45
2022-10-05T04:04:33.380Z,77.79
2022-10-05T04:06:59.705Z,77.99
2022-10-05T04:09:26.055Z,78.67
2022-10-05T04:11:52.370Z,78.79
2022-10-05T04:14:18.696Z,78.77
2022-10-05T04:16:45.403Z,78.94
2022-10-05T04:19:11.478Z,78.90
2022-10-05T04:21:37.795Z,78.96
2022-10-05T04:24:04.124Z,79.14
2022-10-05T04:26:30.446Z,78.97
2022-10-05T04:28:56.792Z,78.67
2022-10-05T04:31:23.181Z,78.75
2022-10-05T04:33:49.471Z,78.47
2022-10-05T04:36:15.824Z,78.11
2022-10-05T04:38:42.163Z,77.79
2022-10-05T04:41:08.499Z,77.29
2022-10-05T04:43:34.853Z,76.24
2022-10-05T04:46:01.168Z,75.74
2022-10-05T04:48:27.493Z,75.08
2022-10-05T04:50:53.835Z,74.78
2022-10-05T04:53:20.154Z,74.55
2022-10-05T04:55:46.536Z,74.37
2022-10-05T04:58:12.881Z,74.21
2022-10-05T05:00:39.236Z,74.06
2022-10-05T05:03:05.581Z,73.72
2022-10-05T05:05:31.895Z,73.08
2022-10-05T05:07:58.240Z,71.90
2022-10-05T05:10:24.574Z,70.73
2022-10-05T05:12:50.900Z,70.13
2022-10-05T05:15:17.244Z,69.44
2022-10-05T05:17:43.567Z,68.93
2022-10-05T05:20:09.887Z,67.63
2022-10-05T05:22:36.244Z,66.88
2022-10-05T05:25:02.585Z,66.13
2022-10-05T05:27:28.910Z,65.79
2022-10-05T05:29:55.229Z,65.17
2022-10-05T05:32:21.573Z,65.28
2022-10-05T05:34:47.898Z,64.88
2022-10-05T05:37:14.241Z,64.55
2022-10-05T05:39:40.578Z,63.66
2022-10-05T05:42:06.929Z,63.06
2022-10-05T05:44:37.828Z,62.65
2022-10-05T05:47:03.956Z,61.83
2022-10-05T05:49:25.917Z,60.22
2022-10-05T05:51:52.244Z,60.12
2022-10-05T05:54:18.590Z,59.42
2022-10-05T05:56:45.173Z,59.44
2022-10-05T05:59:11.287Z,57.89
2022-10-05T06:01:41.934Z,58.63
2022-10-05T06:04:03.944Z,58.01
2022-10-05T06:06:30.288Z,57.22
2022-10-05T06:08:56.639Z,56.87
2022-10-05T06:11:22.977Z,57.60
2022-10-05T06:13:49.311Z,59.17
2022-10-05T06:16:15.704Z,58.94
2022-10-05T06:18:42.003Z,58.51
2022-10-05T06:21:08.333Z,57.92
2022-10-05T06:23:34.661Z,58.61
2022-10-05T06:26:01.073Z,58.33
2022-10-05T06:28:27.435Z,57.36
2022-10-05T06:30:53.720Z,57.32
2022-10-05T06:33:20.038Z,57.03
2022-10-05T06:35:46.360Z,55.79
2022-10-05T06:38:12.696Z,54.55
2022-10-05T06:40:39.019Z,54.00
2022-10-05T06:43:05.343Z,53.63
2022-10-05T06:45:31.764Z,54.92
2022-10-05T06:48:02.820Z,53.74
2022-10-05T06:50:24.392Z,53.49
2022-10-05T06:52:50.728Z,53.17
2022-10-05T06:55:17.082Z,52.70
2022-10-05T06:57:43.433Z,52.81
2022-10-05T07:00:09.754Z,52.74
2022-10-05T07:02:36.165Z,52.86
2022-10-05T07:05:02.473Z,52.63
2022-10-05T07:07:28.788Z,54.34
2022-10-05T07:09:55.154Z,54.72
2022-10-05T07:12:21.481Z,55.09
2022-10-05T07:14:47.805Z,54.82
2022-10-05T07:17:14.125Z,54.09
2022-10-05T07:19:40.468Z,52.18
2022-10-05T07:24:33.173Z,52.02
2022-10-05T07:26:59.489Z,50.56
2022-10-05T07:29:25.853Z,50.20
2022-10-05T07:31:52.192Z,51.18
2022-10-05T07:34:18.533Z,50.34
2022-10-05T07:36:45.286Z,51.08
2022-10-05T07:39:11.228Z,50.29
2022-10-05T07:41:37.563Z,50.46
2022-10-05T07:44:05.787Z,49.21
2022-10-05T07:46:30.278Z,49.90
2022-10-05T07:48:56.597Z,48.72
2022-10-05T07:51:22.955Z,49.03
2022-10-05T07:53:49.284Z,48.24
2022-10-05T07:56:15.601Z,48.17
2022-10-05T07:58:41.948Z,47.55
2022-10-05T08:01:08.277Z,47.72
2022-10-05T08:03:34.628Z,46.96
2022-10-05T08:06:00.972Z,45.83
2022-10-05T08:08:27.282Z,46.17
2022-10-05T08:10:53.688Z,45.67
2022-10-05T08:13:20.013Z,45.67
2022-10-05T08:15:46.392Z,44.66
2022-10-05T08:18:12.671Z,44.73
2022-10-05T08:20:39.015Z,44.52
2022-10-05T08:23:05.331Z,43.94
2022-10-05T08:25:31.677Z,44.26
2022-10-05T08:27:58.065Z,43.80
2022-10-05T08:30:24.395Z,43.54
2022-10-05T08:32:50.714Z,41.94
2022-10-05T08:35:17.057Z,41.43
2022-10-05T08:37:43.374Z,42.17
2022-10-05T08:40:09.699Z,41.65
2022-10-05T08:42:36.079Z,40.80
2022-10-05T08:45:02.402Z,39.44
2022-10-05T08:47:28.727Z,39.21
2022-10-05T08:49:55.107Z,39.21
2022-10-05T08:52:21.458Z,39.03
2022-10-05T08:54:47.792Z,38.82
2022-10-05T08:57:14.115Z,37.74
2022-10-05T08:59:40.456Z,37.42
2022-10-05T09:02:06.828Z,36.23
2022-10-05T09:04:33.121Z,36.60
2022-10-05T09:06:59.453Z,37.24
2022-10-05T09:09:25.786Z,36.64
2022-10-05T09:11:52.150Z,36.35
2022-10-05T09:14:18.493Z,36.09
2022-10-05T09:16:44.843Z,35.40
2022-10-05T09:19:11.183Z,34.13
2022-10-05T09:21:37.499Z,35.00
2022-10-05T09:24:03.851Z,34.63
2022-10-05T09:26:30.163Z,35.09
2022-10-05T09:28:56.509Z,33.90
2022-10-05T09:31:22.903Z,33.62
2022-10-05T09:33:49.216Z,33.91
2022-10-05T09:36:15.560Z,33.69
2022-10-05T09:38:41.904Z,34.10
2022-10-05T09:41:08.220Z,34.59
2022-10-05T09:43:34.566Z,33.42
2022-10-05T09:46:01.030Z,33.23
2022-10-05T09:48:27.253Z,33.54
2022-10-05T09:50:53.587Z,33.48
2022-10-05T09:53:19.931Z,33.08
2022-10-05T09:55:46.248Z,33.52
2022-10-05T09:58:12.595Z,33.97
2022-10-05T10:00:38.941Z,33.90
2022-10-05T10:03:05.326Z,33.95
2022-10-05T10:05:31.583Z,32.33
2022-10-05T10:07:57.913Z,32.68
2022-10-05T10:10:24.235Z,32.88
2022-10-05T10:12:50.571Z,32.29
2022-10-05T10:15:16.952Z,32.38
2022-10-05T10:17:43.270Z,32.07
2022-10-05T10:20:09.717Z,31.69
2022-10-05T10:22:39.642Z,30.74
2022-10-05T10:25:02.331Z,32.01
2022-10-05T10:27:28.676Z,32.18
2022-10-05T10:29:54.991Z,32.04
2022-10-05T10:32:21.344Z,31.59
2022-10-05T10:34:47.691Z,32.27
2022-10-05T10:37:14.039Z,31.71
2022-10-05T10:39:40.354Z,31.87
2022-10-05T10:42:06.680Z,31.05
2022-10-05T10:44:33.034Z,30.59
2022-10-05T10:46:59.476Z,30.36
2022-10-05T10:49:25.697Z,30.14
2022-10-05T10:51:52.048Z,29.54
2022-10-05T10:54:18.363Z,30.28
2022-10-05T10:56:44.714Z,29.14
2022-10-05T10:59:11.053Z,29.26
2022-10-05T11:01:37.418Z,29.31
2022-10-05T11:04:03.711Z,29.76
2022-10-05T11:06:30.057Z,30.03
2022-10-05T11:08:56.375Z,29.79
2022-10-05T11:11:22.704Z,30.38
2022-10-05T11:13:49.052Z,30.96
2022-10-05T11:16:18.713Z,30.20
2022-10-05T11:18:41.773Z,30.67
2022-10-05T11:21:08.115Z,29.73
2022-10-05T11:23:38.825Z,30.00
2022-10-05T11:26:00.778Z,30.19
2022-10-05T11:28:27.189Z,30.33
2022-10-05T11:30:53.496Z,29.51
2022-10-05T11:33:19.814Z,29.61
2022-10-05T11:35:46.204Z,29.89
2022-10-05T11:38:12.516Z,29.76
2022-10-05T11:40:38.883Z,29.49
2022-10-05T11:43:05.206Z,28.85
2022-10-05T11:45:31.533Z,28.55
2022-10-05T11:47:57.882Z,29.09
2022-10-05T11:50:24.230Z,29.01
2022-10-05T11:52:50.545Z,29.15
2022-10-05T11:55:16.894Z,29.54
2022-10-05T11:57:43.197Z,29.15
2022-10-05T12:00:09.562Z,29.24
2022-10-05T12:02:38.836Z,29.13
2022-10-05T12:05:02.227Z,29.05
2022-10-05T12:07:28.739Z,28.86
2022-10-05T12:09:55.096Z,28.30
2022-10-05T12:12:21.435Z,28.59
2022-10-05T12:14:47.757Z,28.12
2022-10-05T12:17:14.111Z,27.59
2022-10-05T12:19:40.435Z,27.63
2022-10-05T12:22:06.763Z,27.89
2022-10-05T12:24:33.113Z,27.76
2022-10-05T12:26:59.453Z,27.90
2022-10-05T12:29:25.774Z,27.69
2022-10-05T12:31:52.094Z,27.22
2022-10-05T12:34:18.460Z,26.85
2022-10-05T12:37:03.573Z,26.86
2022-10-05T12:39:11.129Z,26.32
2022-10-05T12:41:37.503Z,26.55
2022-10-05T12:44:03.820Z,26.68
2022-10-05T12:46:30.161Z,26.42
2022-10-05T12:48:56.540Z,27.32
2022-10-05T12:51:22.862Z,27.41
2022-10-05T12:53:49.225Z,26.47
2022-10-05T12:56:15.583Z,27.21
2022-10-05T12:58:41.935Z,27.10
2022-10-05T13:01:08.309Z,27.28
2022-10-05T13:03:34.604Z,28.58
2022-10-05T13:06:02.755Z,29.24
2022-10-05T13:08:27.269Z,30.41
2022-10-05T13:10:53.611Z,30.31
2022-10-05T13:13:19.932Z,30.84
2022-10-05T13:15:46.320Z,30.77
2022-10-05T13:18:12.659Z,31.14
2022-10-05T13:20:38.996Z,31.75
2022-10-05T13:23:05.316Z,31.45
2022-10-05T13:25:31.656Z,31.71
2022-10-05T13:27:57.996Z,31.46
2022-10-05T13:30:24.428Z,31.56
2022-10-05T13:32:50.767Z,31.98
2022-10-05T13:35:17.148Z,32.04
2022-10-05T13:37:43.467Z,32.46
2022-10-05T13:40:09.787Z,32.52
2022-10-05T13:42:36.111Z,32.90
2022-10-05T13:45:02.454Z,32.98
2022-10-05T13:47:28.810Z,33.10
2022-10-05T13:49:55.130Z,32.83
2022-10-05T13:52:21.474Z,32.94
2022-10-05T13:54:47.805Z,33.55
2022-10-05T13:57:14.151Z,33.55
2022-10-05T13:59:40.466Z,33.96
2022-10-05T14:02:06.854Z,34.28
2022-10-05T14:04:33.173Z,34.41
2022-10-05T14:06:59.491Z,34.44
2022-10-05T14:09:25.850Z,34.60
2022-10-05T14:11:52.194Z,34.97
2022-10-05T14:14:18.547Z,35.26
2022-10-05T14:16:44.928Z,35.49
2022-10-05T14:19:11.174Z,35.23
2022-10-05T14:21:37.543Z,35.61
2022-10-05T14:24:04.314Z,36.22
2022-10-05T14:26:30.215Z,36.18
2022-10-05T14:28:56.598Z,36.14
2022-10-05T14:31:23.015Z,36.32
2022-10-05T14:33:49.281Z,36.03
2022-10-05T14:36:15.667Z,36.07
2022-10-05T14:38:42.004Z,36.20
2022-10-05T14:41:08.319Z,36.29
2022-10-05T14:43:34.689Z,36.47
2022-10-05T14:46:01.115Z,36.57
2022-10-05T14:48:27.384Z,36.84
2022-10-05T14:50:53.714Z,36.95
2022-10-05T14:53:20.033Z,37.54
2022-10-05T14:55:46.410Z,37.60
2022-10-05T14:58:12.719Z,38.00
2022-10-05T15:00:39.049Z,38.17
2022-10-05T15:03:05.373Z,38.46
2022-10-05T15:05:31.746Z,38.47
2022-10-05T15:07:58.059Z,38.74
2022-10-05T15:10:24.419Z,38.65
2022-10-05T15:12:50.735Z,38.78
2022-10-05T15:15:17.063Z,39.16
2022-10-05T15:17:43.399Z,39.36
2022-10-05T15:20:09.723Z,39.44
2022-10-05T15:22:36.065Z,39.45
2022-10-05T15:25:02.406Z,39.65
2022-10-05T15:27:28.785Z,39.81
2022-10-05T15:29:55.100Z,40.04
2022-10-05T15:32:21.441Z,40.15
2022-10-05T15:34:47.763Z,40.41
2022-10-05T15:37:14.102Z,40.60
2022-10-05T15:39:40.427Z,40.82
2022-10-05T15:42:06.748Z,41.10
2022-10-05T15:44:33.096Z,41.45
2022-10-05T15:46:59.455Z,41.69
2022-10-05T15:49:25.779Z,42.29
2022-10-05T15:51:52.097Z,42.31
2022-10-05T15:54:18.537Z,42.46
2022-10-05T15:56:44.827Z,43.02
2022-10-05T15:59:15.425Z,43.51
2022-10-05T16:01:37.544Z,44.18
2022-10-05T16:04:03.832Z,44.82
2022-10-05T16:06:30.175Z,44.80
2022-10-05T16:08:56.500Z,45.40
2022-10-05T16:11:22.835Z,45.83
2022-10-05T16:13:49.159Z,45.71
2022-10-05T16:16:15.526Z,46.70
2022-10-05T16:18:41.824Z,45.95
2022-10-05T16:21:08.176Z,46.77
2022-10-05T16:23:34.526Z,46.33
2022-10-05T16:26:00.866Z,46.34
2022-10-05T16:28:27.485Z,46.29
2022-10-05T16:30:53.626Z,46.34
2022-10-05T16:33:19.935Z,47.20
2022-10-05T16:35:46.250Z,46.91
2022-10-05T16:38:12.589Z,47.49
2022-10-05T16:40:38.913Z,47.78
2022-10-05T16:43:05.238Z,48.00
2022-10-05T16:45:31.632Z,48.42
2022-10-05T16:47:57.906Z,48.21
2022-10-05T16:50:24.250Z,47.70
2022-10-05T16:52:50.593Z,47.29
2022-10-05T16:55:16.912Z,47.26
2022-10-05T16:57:43.258Z,47.30
2022-10-05T17:00:14.883Z,47.46
2022-10-05T17:02:35.937Z,47.34
2022-10-05T17:05:02.234Z,47.98
2022-10-05T17:07:28.577Z,47.75
2022-10-05T17:09:54.908Z,47.96
2022-10-05T17:12:21.253Z,47.69
2022-10-05T17:14:47.668Z,47.86
2022-10-05T17:17:14.015Z,47.90
2022-10-05T17:19:40.404Z,48.31
2022-10-05T17:22:06.738Z,48.21
2022-10-05T17:24:33.063Z,48.47
2022-10-05T17:26:59.452Z,49.10
2022-10-05T17:29:25.818Z,49.35
2022-10-05T17:31:52.163Z,49.62
2022-10-05T17:34:18.516Z,49.02
2022-10-05T17:36:44.860Z,50.78
2022-10-05T17:39:11.174Z,51.17
2022-10-05T17:41:37.574Z,51.76
2022-10-05T17:44:03.910Z,51.85
2022-10-05T17:46:30.316Z,52.45
2022-10-05T17:48:56.602Z,51.82
2022-10-05T17:51:22.946Z,52.21
2022-10-05T17:53:49.261Z,52.60
2022-10-05T17:56:15.617Z,52.99
2022-10-05T17:58:41.946Z,53.34
2022-10-05T18:01:08.341Z,54.47
2022-10-05T18:03:34.654Z,55.04
2022-10-05T18:06:00.979Z,55.20
2022-10-05T18:08:32.618Z,55.33
2022-10-05T18:10:53.680Z,55.52
2022-10-05T18:13:20.024Z,55.33
2022-10-05T18:15:46.410Z,55.71
2022-10-05T18:18:12.665Z,56.07
2022-10-05T18:20:38.988Z,56.76
2022-10-05T18:23:05.329Z,56.66
2022-10-05T18:25:31.671Z,56.84
2022-10-05T18:27:58.038Z,56.28
2022-10-05T18:30:24.361Z,56.66
2022-10-05T18:32:50.684Z,56.64
2022-10-05T18:35:17.016Z,56.83
2022-10-05T18:37:43.361Z,56.73
2022-10-05T18:40:09.699Z,56.64
2022-10-05T18:42:36.055Z,57.12
2022-10-05T18:45:02.411Z,57.52
2022-10-05T18:47:28.781Z,57.43
2022-10-05T18:49:55.115Z,57.49
2022-10-05T18:52:21.501Z,57.44
2022-10-05T18:54:47.851Z,57.93
2022-10-05T18:57:14.170Z,58.15
2022-10-05T18:59:40.564Z,57.96
2022-10-05T19:02:07.048Z,59.77
2022-10-05T19:04:33.245Z,60.30
2022-10-05T19:06:59.599Z,60.49
2022-10-05T19:09:25.936Z,60.01
2022-10-05T19:11:52.258Z,60.64
2022-10-05T19:14:18.667Z,61.35
2022-10-05T19:16:45.024Z,61.34
2022-10-05T19:19:11.397Z,61.45
2022-10-05T19:21:37.733Z,61.14
2022-10-05T19:24:04.067Z,61.25
2022-10-05T19:26:30.412Z,61.43
2022-10-05T19:28:56.735Z,61.02
2022-10-05T19:31:23.188Z,61.22
2022-10-05T19:33:49.436Z,60.79
2022-10-05T19:36:15.759Z,60.96
2022-10-05T19:38:42.075Z,61.42
2022-10-05T19:41:08.424Z,61.77
2022-10-05T19:43:34.757Z,61.56
2022-10-05T19:46:01.130Z,61.67
2022-10-05T19:48:27.819Z,62.49
2022-10-05T19:50:53.825Z,62.54
2022-10-05T19:53:20.132Z,62.95
2022-10-05T19:55:46.459Z,62.93
2022-10-05T19:58:12.776Z,62.94
2022-10-05T20:00:39.097Z,62.90
2022-10-05T20:03:05.480Z,63.40
2022-10-05T20:05:31.785Z,63.63
2022-10-05T20:07:58.122Z,63.62
2022-10-05T20:10:24.454Z,63.71
2022-10-05T20:12:50.793Z,64.01
2022-10-05T20:15:17.139Z,64.30
2022-10-05T20:17:43.475Z,64.15
2022-10-05T20:20:09.823Z,63.74
2022-10-05T20:22:36.174Z,63.39
2022-10-05T20:25:02.566Z,63.75
2022-10-05T20:27:28.860Z,64.13
2022-10-05T20:29:55.207Z,64.05
2022-10-05T20:32:21.548Z,64.10
2022-10-05T20:34:47.908Z,64.01
2022-10-05T20:37:14.241Z,64.25
2022-10-05T20:39:40.554Z,64.67
2022-10-05T20:42:06.896Z,64.96
2022-10-05T20:44:33.241Z,65.19
2022-10-05T20:46:59.630Z,64.98
2022-10-05T20:49:25.914Z,64.96
2022-10-05T20:51:52.255Z,65.08
2022-10-05T20:54:18.575Z,65.41
2022-10-05T20:56:44.937Z,65.28
2022-10-05T20:59:11.266Z,64.96
2022-10-05T21:01:37.606Z,64.91
2022-10-05T21:04:03.979Z,65.05
2022-10-05T21:06:30.316Z,65.64
2022-10-05T21:08:56.660Z,65.87
2022-10-05T21:11:22.978Z,65.94
2022-10-05T21:13:49.373Z,65.41
2022-10-05T21:16:15.791Z,65.78
2022-10-05T21:18:42.053Z,65.90
2022-10-05T21:21:08.388Z,65.80
2022-10-05T21:23:34.712Z,65.98
2022-10-05T21:26:01.051Z,65.88
2022-10-05T21:28:27.786Z,66.01
2022-10-05T21:30:53.739Z,65.91
2022-10-05T21:33:20.089Z,65.95
2022-10-05T21:35:46.441Z,66.02
2022-10-05T21:38:12.796Z,66.00
2022-10-05T21:40:39.114Z,65.82
2022-10-05T21:43:05.471Z,65.98
2022-10-05T21:45:31.847Z,65.93
2022-10-05T21:47:58.129Z,66.30
2022-10-05T21:50:24.470Z,66.46
2022-10-05T21:52:50.846Z,66.49
2022-10-05T21:55:17.162Z,67.04
2022-10-05T21:57:43.504Z,67.38
2022-10-05T22:00:09.850Z,67.75
2022-10-05T22:02:36.194Z,67.92
2022-10-05T22:05:02.511Z,68.35
2022-10-05T22:07:28.836Z,68.41
2022-10-05T22:09:55.174Z,68.62
2022-10-05T22:12:21.494Z,68.76
2022-10-05T22:14:47.817Z,69.01
2022-10-05T22:17:14.163Z,69.17
2022-10-05T22:19:40.478Z,69.06
2022-10-05T22:22:11.688Z,69.29
2022-10-05T22:24:33.129Z,69.49
2022-10-05T22:26:59.482Z,69.66
2022-10-05T22:29:25.856Z,69.71
2022-10-05T22:31:52.230Z,69.64
2022-10-05T22:34:18.513Z,69.18
2022-10-05T22:36:44.856Z,69.36
2022-10-05T22:39:11.169Z,69.57
2022-10-05T22:41:37.497Z,69.69
2022-10-05T22:44:03.814Z,69.79
2022-10-05T22:46:30.193Z,69.99
2022-10-05T22:48:56.475Z,70.31
2022-10-05T22:51:22.820Z,70.47
2022-10-05T22:53:49.174Z,70.51
2022-10-05T22:56:15.687Z,70.26
2022-10-05T22:58:41.938Z,70.44
2022-10-05T23:01:08.371Z,70.45
2022-10-05T23:03:34.625Z,70.30
2022-10-05T23:06:00.961Z,70.05
2022-10-05T23:08:27.702Z,70.21
2022-10-05T23:10:53.602Z,70.55
2022-10-05T23:13:19.947Z,70.85
2022-10-05T23:15:46.267Z,71.11
2022-10-05T23:18:12.587Z,71.02
2022-10-05T23:20:38.914Z,71.17
2022-10-05T23:23:05.232Z,71.80
2022-10-05T23:25:31.578Z,71.98
2022-10-05T23:27:57.943Z,72.14
2022-10-05T23:30:24.254Z,72.22
2022-10-05T23:32:50.598Z,72.11
2022-10-05T23:35:16.918Z,72.27
2022-10-05T23:37:43.266Z,72.21
2022-10-05T23:40:09.610Z,72.10
2022-10-05T23:42:35.928Z,72.14
2022-10-05T23:45:02.306Z,72.12
2022-10-05T23:47:28.618Z,72.04
2022-10-05T23:49:54.943Z,72.34
2022-10-05T23:52:21.293Z,73.71
2022-10-05T23:54:47.614Z,72.60
2022-10-05T23:57:13.944Z,72.25
2022-10-05T23:59:40.319Z,72.15
